Repülésmeteorológia

METAR


Utolsó módosítás időpontja: 2021-05-05 23:50:00
699
SAHU41 HASM 060000
METAR LHSM 052345Z AUTO VRB01KT CAVOK 09/06 Q1014

TAF


Utolsó módosítás időpontja: 2021-05-05 23:05:00
697
FCHU99 LHSM 052300
TAF LHSM 052300Z NIL